createdAt,value
2023-04-15T00:01:49.252Z,5.90
2023-04-15T00:04:16.532Z,6.00
2023-04-15T00:06:43.608Z,5.90
2023-04-15T00:09:10.492Z,6.00
2023-04-15T00:11:37.488Z,6.00
2023-04-15T00:14:04.590Z,6.00
2023-04-15T00:16:31.639Z,6.00
2023-04-15T00:18:59.192Z,6.00
2023-04-15T00:21:30.454Z,6.00
2023-04-15T00:23:57.637Z,6.00
2023-04-15T00:26:24.560Z,6.00
2023-04-15T00:28:51.812Z,6.00
2023-04-15T00:31:18.982Z,6.00
2023-04-15T00:33:45.921Z,6.00
2023-04-15T00:36:12.880Z,6.00
2023-04-15T00:38:39.824Z,6.00
2023-04-15T00:41:07.720Z,6.00
2023-04-15T00:43:34.890Z,6.00
2023-04-15T00:46:04.107Z,6.00
2023-04-15T00:48:32.777Z,6.00
2023-04-15T00:50:59.769Z,5.90
2023-04-15T00:53:27.768Z,5.90
2023-04-15T00:55:55.141Z,5.90
2023-04-15T00:58:22.644Z,5.90
2023-04-15T01:00:49.630Z,5.90
2023-04-15T01:03:16.767Z,6.00
2023-04-15T01:05:43.727Z,5.90
2023-04-15T01:08:10.705Z,5.90
2023-04-15T01:10:37.975Z,5.90
2023-04-15T01:13:05.049Z,5.90
2023-04-15T01:15:32.500Z,5.90
2023-04-15T01:17:59.958Z,5.90
2023-04-15T01:20:27.611Z,5.80
2023-04-15T01:22:55.730Z,5.80
2023-04-15T01:25:33.549Z,5.80
2023-04-15T01:28:01.119Z,5.80
2023-04-15T01:30:28.241Z,5.80
2023-04-15T01:32:55.612Z,5.80
2023-04-15T01:35:24.225Z,5.90
2023-04-15T01:37:51.418Z,5.90
2023-04-15T01:40:18.641Z,5.80
2023-04-15T01:42:45.862Z,5.80
2023-04-15T01:45:15.995Z,5.80
2023-04-15T01:47:43.007Z,5.80
2023-04-15T01:50:10.716Z,5.80
2023-04-15T01:52:37.739Z,5.80
2023-04-15T01:55:06.440Z,5.80
2023-04-15T01:57:33.729Z,5.80
2023-04-15T02:00:01.073Z,5.80
2023-04-15T02:02:28.168Z,5.80
2023-04-15T02:04:55.782Z,5.70
2023-04-15T02:07:23.267Z,5.70
2023-04-15T02:09:50.294Z,5.70
2023-04-15T02:12:19.096Z,5.70
2023-04-15T02:14:47.345Z,5.70
2023-04-15T02:17:17.420Z,5.70
2023-04-15T02:19:44.522Z,5.70
2023-04-15T02:22:18.966Z,5.70
2023-04-15T02:24:46.922Z,5.70
2023-04-15T02:27:18.313Z,5.70
2023-04-15T02:29:46.136Z,5.70
2023-04-15T02:32:16.463Z,5.60
2023-04-15T02:34:43.556Z,5.70
2023-04-15T02:37:11.391Z,5.70
2023-04-15T02:39:38.966Z,5.60
2023-04-15T02:42:09.137Z,5.70
2023-04-15T02:44:36.878Z,5.70
2023-04-15T02:47:06.075Z,5.70
2023-04-15T02:49:33.940Z,5.70
2023-04-15T02:52:01.045Z,5.70
2023-04-15T02:54:31.128Z,5.70
2023-04-15T02:56:58.183Z,5.70
2023-04-15T02:59:25.527Z,5.70
2023-04-15T03:01:52.743Z,5.60
2023-04-15T03:04:20.391Z,5.50
2023-04-15T03:06:47.847Z,5.50
2023-04-15T03:09:14.748Z,5.40
2023-04-15T03:11:42.321Z,5.40
2023-04-15T03:14:09.488Z,5.50
2023-04-15T03:16:36.507Z,5.40
2023-04-15T03:19:03.750Z,5.40
2023-04-15T03:21:30.999Z,5.40
2023-04-15T03:23:57.961Z,5.50
2023-04-15T03:26:31.934Z,5.50
2023-04-15T03:28:59.574Z,5.60
2023-04-15T03:31:27.153Z,5.60
2023-04-15T03:33:54.254Z,5.60
2023-04-15T03:36:21.289Z,5.70
2023-04-15T03:38:49.476Z,5.70
2023-04-15T03:41:16.429Z,5.70
2023-04-15T03:43:43.565Z,5.70
2023-04-15T03:46:19.358Z,5.60
2023-04-15T03:48:47.096Z,5.60
2023-04-15T03:51:14.176Z,5.50
2023-04-15T03:53:41.222Z,5.50
2023-04-15T03:56:08.281Z,5.50
2023-04-15T03:58:35.259Z,5.50
2023-04-15T04:01:02.277Z,5.50
2023-04-15T04:03:29.408Z,5.50
2023-04-15T04:05:56.711Z,5.50
2023-04-15T04:08:23.674Z,5.50
2023-04-15T04:10:50.828Z,5.60
2023-04-15T04:13:17.723Z,5.60
2023-04-15T04:15:44.716Z,5.60
2023-04-15T04:18:11.845Z,5.70
2023-04-15T04:20:38.843Z,5.70
2023-04-15T04:23:06.195Z,5.70
2023-04-15T04:25:33.234Z,5.70
2023-04-15T04:28:00.267Z,5.60
2023-04-15T04:30:27.367Z,5.60
2023-04-15T04:32:54.416Z,5.70
2023-04-15T04:35:22.308Z,5.70
2023-04-15T04:37:49.221Z,5.70
2023-04-15T04:40:16.309Z,5.70
2023-04-15T04:42:43.356Z,5.70
2023-04-15T04:45:10.556Z,5.70
2023-04-15T04:47:37.473Z,5.70
2023-04-15T04:50:04.810Z,5.70
2023-04-15T04:52:32.343Z,5.80
2023-04-15T04:54:59.272Z,5.80
2023-04-15T04:57:26.673Z,5.90
2023-04-15T04:59:53.905Z,5.90
2023-04-15T05:02:21.656Z,5.90
2023-04-15T05:04:50.146Z,5.90
2023-04-15T05:07:17.131Z,6.00
2023-04-15T05:09:44.208Z,6.00
2023-04-15T05:12:15.054Z,6.00
2023-04-15T05:14:42.527Z,6.10
2023-04-15T05:17:09.613Z,6.20
2023-04-15T05:19:36.606Z,6.10
2023-04-15T05:22:03.746Z,6.20
2023-04-15T05:24:30.927Z,6.20
2023-04-15T05:26:58.125Z,6.20
2023-04-15T05:29:25.207Z,6.20
2023-04-15T05:31:52.476Z,6.30
2023-04-15T05:34:20.048Z,6.30
2023-04-15T05:36:46.983Z,6.40
2023-04-15T05:39:14.014Z,6.40
2023-04-15T05:41:41.300Z,6.40
2023-04-15T05:44:08.269Z,6.40
2023-04-15T05:46:35.283Z,6.40
2023-04-15T05:49:02.896Z,6.40
2023-04-15T05:51:30.201Z,6.50
2023-04-15T05:53:57.204Z,6.50
2023-04-15T05:56:24.947Z,6.50
2023-04-15T05:58:53.746Z,6.50
2023-04-15T06:01:20.978Z,6.50
2023-04-15T06:03:48.968Z,6.40
2023-04-15T06:06:16.014Z,6.50
2023-04-15T06:08:42.978Z,6.50
2023-04-15T06:11:10.146Z,6.50
2023-04-15T06:13:37.189Z,6.50
2023-04-15T06:16:04.506Z,6.50
2023-04-15T06:18:31.524Z,6.50
2023-04-15T06:20:58.590Z,6.50
2023-04-15T06:23:26.940Z,6.60
2023-04-15T06:25:55.034Z,6.60
2023-04-15T06:28:21.996Z,6.60
2023-04-15T06:30:49.072Z,6.70
2023-04-15T06:33:16.107Z,6.70
2023-04-15T06:35:43.280Z,6.70
2023-04-15T06:38:10.609Z,6.70
2023-04-15T06:40:37.720Z,6.70
2023-04-15T06:43:05.052Z,6.80
2023-04-15T06:45:32.670Z,6.80
2023-04-15T06:47:59.869Z,6.80
2023-04-15T06:50:27.536Z,6.80
2023-04-15T06:52:56.348Z,6.80
2023-04-15T06:55:23.510Z,6.70
2023-04-15T06:57:50.571Z,6.70
2023-04-15T07:00:17.996Z,6.80
2023-04-15T07:02:45.431Z,6.80
2023-04-15T07:05:12.827Z,6.80
2023-04-15T07:07:40.006Z,6.90
2023-04-15T07:10:07.877Z,6.90
2023-04-15T07:12:36.006Z,6.90
2023-04-15T07:15:03.751Z,6.90
2023-04-15T07:17:30.881Z,6.90
2023-04-15T07:19:58.186Z,6.90
2023-04-15T07:22:26.362Z,6.90
2023-04-15T07:24:53.588Z,6.90
2023-04-15T07:27:21.155Z,6.90
2023-04-15T07:29:49.142Z,6.90
2023-04-15T07:32:16.557Z,6.90
2023-04-15T07:34:44.670Z,7.00
2023-04-15T07:37:11.693Z,7.00
2023-04-15T07:39:38.748Z,7.00
2023-04-15T07:42:05.876Z,7.10
2023-04-15T07:44:33.097Z,7.10
2023-04-15T07:47:00.087Z,7.10
2023-04-15T07:49:27.002Z,7.10
2023-04-15T07:51:54.109Z,7.20
2023-04-15T07:54:21.098Z,7.20
2023-04-15T07:56:48.202Z,7.20
2023-04-15T07:59:17.986Z,7.20
2023-04-15T08:01:45.144Z,7.20
2023-04-15T08:04:12.182Z,7.20
2023-04-15T08:06:40.103Z,7.20
2023-04-15T08:09:08.240Z,7.30
2023-04-15T08:11:36.660Z,7.20
2023-04-15T08:14:04.797Z,7.30
2023-04-15T08:16:32.137Z,7.30
2023-04-15T08:18:59.810Z,7.30
2023-04-15T08:21:27.740Z,7.30
2023-04-15T08:23:54.893Z,7.40
2023-04-15T08:26:22.237Z,7.40
2023-04-15T08:28:49.782Z,7.40
2023-04-15T08:31:18.576Z,7.40
2023-04-15T08:33:46.946Z,7.50
2023-04-15T08:36:14.280Z,7.40
2023-04-15T08:38:41.557Z,7.50
2023-04-15T08:41:23.949Z,7.50
2023-04-15T08:44:04.407Z,7.50
2023-04-15T08:46:35.057Z,7.60
2023-04-15T08:49:05.105Z,7.60
2023-04-15T08:51:34.042Z,7.60
2023-04-15T08:54:02.672Z,7.60
2023-04-15T08:56:33.304Z,7.60
2023-04-15T08:59:00.858Z,7.60
2023-04-15T09:01:28.795Z,7.60
2023-04-15T09:03:57.969Z,7.60
2023-04-15T09:06:27.226Z,7.70
2023-04-15T09:08:55.280Z,7.70
2023-04-15T09:11:23.127Z,7.70
2023-04-15T09:13:50.638Z,7.70
2023-04-15T09:16:17.635Z,7.70
2023-04-15T09:18:44.827Z,7.70
2023-04-15T09:21:16.783Z,7.80
2023-04-15T09:24:05.049Z,7.80
2023-04-15T09:26:37.468Z,7.80
2023-04-15T09:29:11.577Z,7.90
2023-04-15T09:31:39.278Z,7.90
2023-04-15T09:34:07.155Z,7.90
2023-04-15T09:36:56.657Z,8.00
2023-04-15T09:39:24.214Z,8.00
2023-04-15T09:42:08.649Z,8.00
2023-04-15T09:44:37.284Z,8.00
2023-04-15T09:47:04.692Z,8.00
2023-04-15T09:49:32.342Z,8.10
2023-04-15T09:52:05.651Z,8.10
2023-04-15T09:54:36.859Z,8.10
2023-04-15T09:57:12.237Z,8.10
2023-04-15T09:59:40.728Z,8.10
2023-04-15T10:02:09.262Z,8.20
2023-04-15T10:04:41.532Z,8.20
2023-04-15T10:07:10.097Z,8.20
2023-04-15T10:09:40.557Z,8.20
2023-04-15T10:12:09.031Z,8.20
2023-04-15T10:14:38.880Z,8.20
2023-04-15T10:17:07.937Z,8.30
2023-04-15T10:19:38.458Z,8.30
2023-04-15T10:22:06.684Z,8.30
2023-04-15T10:24:34.024Z,8.30
2023-04-15T10:27:02.500Z,8.40
2023-04-15T10:29:29.862Z,8.40
2023-04-15T10:31:57.660Z,8.40
2023-04-15T10:34:25.818Z,8.40
2023-04-15T10:36:57.940Z,8.40
2023-04-15T10:39:34.919Z,8.50
2023-04-15T10:42:13.446Z,8.50
2023-04-15T10:44:43.819Z,8.40
2023-04-15T10:47:14.408Z,8.50
2023-04-15T10:49:59.860Z,8.40
2023-04-15T10:52:29.330Z,8.40
2023-04-15T10:55:25.287Z,8.40
2023-04-15T10:57:53.537Z,8.40
2023-04-15T11:00:25.282Z,8.40
2023-04-15T11:02:58.292Z,8.40
2023-04-15T11:05:52.178Z,8.40
2023-04-15T11:08:20.323Z,8.50
2023-04-15T11:10:47.880Z,8.40
2023-04-15T11:13:22.657Z,8.40
2023-04-15T11:15:50.864Z,8.40
2023-04-15T11:18:30.949Z,8.40
2023-04-15T11:21:07.038Z,8.50
2023-04-15T11:23:47.030Z,8.50
2023-04-15T11:26:15.286Z,8.50
2023-04-15T11:28:47.919Z,8.50
2023-04-15T11:31:20.295Z,8.50
2023-04-15T11:33:55.713Z,8.50
2023-04-15T11:36:27.657Z,8.50
2023-04-15T11:38:55.929Z,8.50
2023-04-15T11:41:24.454Z,8.60
2023-04-15T11:43:52.662Z,8.50
2023-04-15T11:46:21.836Z,8.60
2023-04-15T11:48:49.371Z,8.60
2023-04-15T11:51:16.920Z,8.60
2023-04-15T11:53:47.665Z,8.60
2023-04-15T11:56:26.038Z,8.60
2023-04-15T11:58:58.600Z,8.60
2023-04-15T12:01:47.859Z,8.60
2023-04-15T12:04:20.807Z,8.60
2023-04-15T12:06:50.341Z,8.60
2023-04-15T12:09:17.586Z,8.60
2023-04-15T12:11:53.941Z,8.60
2023-04-15T12:14:29.629Z,8.60
2023-04-15T12:17:05.473Z,8.60
2023-04-15T12:19:37.646Z,8.60
2023-04-15T12:22:06.772Z,8.60
2023-04-15T12:24:36.250Z,8.70
2023-04-15T12:27:08.654Z,8.70
2023-04-15T12:29:37.590Z,8.70
2023-04-15T12:32:11.207Z,8.80
2023-04-15T12:34:43.561Z,8.80
2023-04-15T12:37:12.428Z,8.80
2023-04-15T12:39:42.186Z,8.80
2023-04-15T12:42:10.429Z,8.80
2023-04-15T12:44:38.452Z,8.90
2023-04-15T12:47:06.931Z,8.90
2023-04-15T12:49:34.692Z,8.90
2023-04-15T12:52:02.950Z,8.90
2023-04-15T12:54:31.536Z,8.90
2023-04-15T12:56:59.337Z,9.00
2023-04-15T12:59:26.728Z,9.00
2023-04-15T13:01:54.464Z,9.00
2023-04-15T13:04:22.432Z,9.00
2023-04-15T13:06:50.493Z,9.00
2023-04-15T13:09:17.923Z,9.00
2023-04-15T13:11:45.786Z,9.00
2023-04-15T13:14:13.440Z,9.00
2023-04-15T13:16:41.197Z,9.00
2023-04-15T13:19:08.574Z,9.00
2023-04-15T13:21:36.521Z,9.00
2023-04-15T13:24:05.253Z,9.10
2023-04-15T13:26:33.442Z,9.10
2023-04-15T13:29:01.115Z,9.10
2023-04-15T13:31:28.421Z,9.10
2023-04-15T13:33:56.733Z,9.10
2023-04-15T13:36:24.265Z,9.10
2023-04-15T13:38:51.709Z,9.20
2023-04-15T13:41:20.210Z,9.20
2023-04-15T13:43:47.450Z,9.20
2023-04-15T13:46:14.923Z,9.20
2023-04-15T13:48:42.199Z,9.20
2023-04-15T13:51:09.374Z,9.20
2023-04-15T13:53:39.027Z,9.20
2023-04-15T13:56:08.114Z,9.30
2023-04-15T13:58:35.724Z,9.30
2023-04-15T14:01:05.854Z,9.20
2023-04-15T14:03:34.986Z,9.20
2023-04-15T14:06:02.197Z,9.20
2023-04-15T14:08:31.344Z,9.20
2023-04-15T14:10:58.729Z,9.20
2023-04-15T14:13:26.033Z,9.20
2023-04-15T14:15:53.260Z,9.20
2023-04-15T14:18:20.685Z,9.20
2023-04-15T14:20:48.627Z,9.20
2023-04-15T14:23:15.920Z,9.20
2023-04-15T14:25:46.078Z,9.20
2023-04-15T14:28:15.206Z,9.30
2023-04-15T14:30:42.608Z,9.40
2023-04-15T14:33:10.095Z,9.30
2023-04-15T14:35:37.094Z,9.20
2023-04-15T14:38:06.056Z,9.20
2023-04-15T14:40:34.389Z,9.20
2023-04-15T14:43:04.236Z,9.20
2023-04-15T14:45:31.889Z,9.30
2023-04-15T14:48:00.395Z,9.30
2023-04-15T14:50:27.803Z,9.30
2023-04-15T14:52:54.731Z,9.30
2023-04-15T14:55:21.946Z,9.40
2023-04-15T14:57:49.344Z,9.40
2023-04-15T15:00:16.755Z,9.40
2023-04-15T15:02:44.046Z,9.50
2023-04-15T15:05:12.451Z,9.60
2023-04-15T15:07:43.405Z,9.60
2023-04-15T15:10:10.780Z,9.60
2023-04-15T15:12:38.096Z,9.60
2023-04-15T15:15:15.628Z,9.70
2023-04-15T15:17:52.760Z,9.70
2023-04-15T15:20:20.222Z,9.70
2023-04-15T15:22:47.686Z,9.80
2023-04-15T15:25:15.317Z,9.80
2023-04-15T15:27:43.366Z,9.90
2023-04-15T15:30:11.376Z,9.90
2023-04-15T15:32:43.017Z,9.90
2023-04-15T15:35:11.825Z,9.90
2023-04-15T15:37:39.270Z,9.90
2023-04-15T15:40:07.884Z,10.00
2023-04-15T15:42:36.211Z,10.00
2023-04-15T15:45:04.977Z,10.10
2023-04-15T15:47:32.619Z,10.10
2023-04-15T15:50:03.036Z,10.10
2023-04-15T15:52:31.995Z,10.10
2023-04-15T15:54:59.313Z,10.10
2023-04-15T15:57:26.786Z,10.10
2023-04-15T16:00:04.709Z,10.10
2023-04-15T16:03:04.400Z,10.10
2023-04-15T16:05:25.442Z,10.10
2023-04-15T16:07:52.653Z,10.10
2023-04-15T16:10:19.776Z,10.10
2023-04-15T16:12:47.034Z,10.10
2023-04-15T16:15:15.237Z,10.20
2023-04-15T16:17:42.292Z,10.30
2023-04-15T16:20:09.914Z,10.30
2023-04-15T16:22:37.376Z,10.40
2023-04-15T16:25:04.837Z,10.40
2023-04-15T16:27:32.228Z,10.50
2023-04-15T16:29:59.446Z,10.50
2023-04-15T16:32:26.739Z,10.50
2023-04-15T16:34:53.950Z,10.60
2023-04-15T16:37:21.804Z,10.60
2023-04-15T16:39:49.088Z,10.50
2023-04-15T16:42:16.481Z,10.50
2023-04-15T16:44:43.567Z,10.50
2023-04-15T16:47:12.033Z,10.50
2023-04-15T16:49:39.307Z,10.50
2023-04-15T16:52:06.519Z,10.40
2023-04-15T16:54:35.123Z,10.40
2023-04-15T16:57:02.739Z,10.50
2023-04-15T16:59:29.783Z,10.50
2023-04-15T17:01:56.896Z,10.50
2023-04-15T17:04:24.080Z,10.50
2023-04-15T17:06:51.537Z,10.40
2023-04-15T17:09:18.582Z,10.40
2023-04-15T17:11:46.143Z,10.40
2023-04-15T17:14:13.307Z,10.30
2023-04-15T17:16:42.074Z,10.30
2023-04-15T17:19:09.600Z,10.20
2023-04-15T17:21:36.975Z,10.20
2023-04-15T17:24:04.538Z,10.10
2023-04-15T17:26:32.049Z,10.10
2023-04-15T17:28:59.291Z,10.00
2023-04-15T17:31:26.665Z,10.00
2023-04-15T17:34:01.777Z,10.00
2023-04-15T17:36:37.275Z,10.00
2023-04-15T17:39:04.810Z,10.00
2023-04-15T17:41:32.316Z,9.90
2023-04-15T17:43:59.630Z,9.90
2023-04-15T17:46:28.012Z,9.80
2023-04-15T17:48:57.609Z,9.90
2023-04-15T17:51:29.082Z,9.80
2023-04-15T17:53:56.885Z,9.80
2023-04-15T17:56:26.052Z,9.70
2023-04-15T17:58:55.200Z,9.80
2023-04-15T18:01:23.093Z,9.70
2023-04-15T18:03:50.649Z,9.70
2023-04-15T18:06:18.002Z,9.70
2023-04-15T18:08:45.769Z,9.70
2023-04-15T18:11:13.658Z,9.70
2023-04-15T18:13:42.077Z,9.70
2023-04-15T18:16:11.818Z,9.70
2023-04-15T18:18:39.280Z,9.70
2023-04-15T18:21:07.127Z,9.70
2023-04-15T18:23:35.807Z,9.70
2023-04-15T18:26:03.890Z,9.60
2023-04-15T18:28:34.134Z,9.60
2023-04-15T18:31:02.427Z,9.60
2023-04-15T18:33:30.160Z,9.60
2023-04-15T18:35:59.678Z,9.60
2023-04-15T18:38:27.364Z,9.60
2023-04-15T18:40:55.931Z,9.60
2023-04-15T18:43:24.065Z,9.60
2023-04-15T18:45:54.995Z,9.60
2023-04-15T18:48:22.393Z,9.60
2023-04-15T18:50:54.123Z,9.60
2023-04-15T18:53:21.846Z,9.60
2023-04-15T18:55:49.413Z,9.60
2023-04-15T18:58:16.646Z,9.60
2023-04-15T19:00:43.966Z,9.60
2023-04-15T19:03:12.038Z,9.60
2023-04-15T19:05:40.291Z,9.60
2023-04-15T19:08:08.070Z,9.60
2023-04-15T19:10:35.960Z,9.60
2023-04-15T19:13:04.491Z,9.60
2023-04-15T19:15:32.619Z,9.60
2023-04-15T19:18:00.274Z,9.60
2023-04-15T19:20:28.065Z,9.60
2023-04-15T19:22:56.329Z,9.60
2023-04-15T19:25:25.030Z,9.70
2023-04-15T19:27:53.750Z,9.60
2023-04-15T19:30:22.709Z,9.60
2023-04-15T19:32:51.817Z,9.70
2023-04-15T19:35:19.425Z,9.60
2023-04-15T19:37:49.446Z,9.60
2023-04-15T19:40:17.831Z,9.60
2023-04-15T19:42:45.891Z,9.60
2023-04-15T19:45:13.450Z,9.60
2023-04-15T19:47:41.028Z,9.70
2023-04-15T19:50:10.180Z,9.70
2023-04-15T19:52:38.041Z,9.70
2023-04-15T19:55:06.080Z,9.60
2023-04-15T19:57:35.114Z,9.60
2023-04-15T20:00:02.678Z,9.60
2023-04-15T20:02:30.388Z,9.50
2023-04-15T20:04:59.092Z,9.50
2023-04-15T20:07:26.295Z,9.50
2023-04-15T20:09:53.942Z,9.50
2023-04-15T20:12:50.206Z,9.40
2023-04-15T20:15:10.238Z,9.40
2023-04-15T20:17:38.425Z,9.30
2023-04-15T20:20:07.328Z,9.30
2023-04-15T20:22:35.226Z,9.20
2023-04-15T20:25:03.233Z,9.10
2023-04-15T20:27:30.143Z,9.20
2023-04-15T20:29:57.381Z,9.20
2023-04-15T20:32:24.572Z,9.20
2023-04-15T20:34:51.833Z,9.10
2023-04-15T20:37:18.958Z,9.10
2023-04-15T20:39:45.990Z,9.00
2023-04-15T20:42:13.111Z,9.00
2023-04-15T20:44:40.802Z,8.90
2023-04-15T20:47:08.256Z,8.90
2023-04-15T20:49:36.505Z,8.90
2023-04-15T20:52:04.708Z,8.80
2023-04-15T20:54:31.779Z,8.80
2023-04-15T20:56:59.053Z,8.70
2023-04-15T20:59:26.397Z,8.70
2023-04-15T21:01:54.263Z,8.60
2023-04-15T21:04:22.279Z,8.70
2023-04-15T21:06:49.423Z,8.60
2023-04-15T21:09:16.699Z,8.60
2023-04-15T21:12:00.288Z,8.60
2023-04-15T21:14:28.617Z,8.60
2023-04-15T21:16:57.218Z,8.70
2023-04-15T21:19:24.241Z,8.80
2023-04-15T21:21:51.392Z,8.90
2023-04-15T21:24:18.315Z,8.90
2023-04-15T21:26:45.470Z,9.00
2023-04-15T21:29:12.702Z,9.00
2023-04-15T21:31:40.772Z,9.10
2023-04-15T21:34:08.516Z,9.10
2023-04-15T21:36:36.106Z,9.00
2023-04-15T21:39:03.770Z,9.00
2023-04-15T21:41:31.606Z,8.90
2023-04-15T21:43:59.076Z,8.90
2023-04-15T21:46:32.678Z,8.90
2023-04-15T21:49:00.786Z,8.90
2023-04-15T21:51:28.461Z,8.90
2023-04-15T21:53:56.191Z,8.80
2023-04-15T21:56:24.521Z,8.90
2023-04-15T21:58:54.470Z,8.90
2023-04-15T22:01:21.861Z,8.90
2023-04-15T22:03:49.637Z,8.90
2023-04-15T22:06:17.327Z,8.90
2023-04-15T22:08:55.417Z,8.90
2023-04-15T22:11:27.958Z,9.00
2023-04-15T22:13:57.075Z,8.90
2023-04-15T22:16:26.221Z,9.00
2023-04-15T22:18:53.638Z,9.00
2023-04-15T22:21:21.097Z,9.00
2023-04-15T22:23:49.000Z,9.10
2023-04-15T22:26:16.230Z,9.10
2023-04-15T22:28:43.665Z,9.10
2023-04-15T22:31:11.412Z,9.10
2023-04-15T22:33:40.378Z,9.10
2023-04-15T22:36:07.455Z,9.10
2023-04-15T22:38:34.617Z,9.10
2023-04-15T22:41:01.863Z,9.10
2023-04-15T22:43:28.949Z,9.10
2023-04-15T22:45:57.013Z,9.20
2023-04-15T22:48:24.072Z,9.10
2023-04-15T22:50:51.413Z,9.10
2023-04-15T22:53:18.637Z,9.10
2023-04-15T22:55:48.842Z,9.20
2023-04-15T22:58:17.372Z,9.20
2023-04-15T23:00:45.324Z,9.20
2023-04-15T23:03:12.975Z,9.10
2023-04-15T23:05:41.505Z,9.20
2023-04-15T23:08:09.223Z,9.10
2023-04-15T23:10:36.499Z,9.10
2023-04-15T23:13:03.765Z,9.20
2023-04-15T23:15:30.958Z,9.10
2023-04-15T23:17:58.294Z,9.20
2023-04-15T23:20:25.865Z,9.10
2023-04-15T23:22:53.069Z,9.20
2023-04-15T23:25:22.508Z,9.10
2023-04-15T23:27:49.919Z,9.20
2023-04-15T23:30:17.496Z,9.10
2023-04-15T23:32:44.807Z,9.00
2023-04-15T23:35:12.312Z,9.10
2023-04-15T23:37:39.707Z,9.10
2023-04-15T23:40:07.399Z,9.10
2023-04-15T23:42:34.373Z,9.10
2023-04-15T23:45:01.499Z,9.10
2023-04-15T23:47:28.521Z,9.10
2023-04-15T23:49:55.561Z,9.10
2023-04-15T23:52:22.843Z,9.00
2023-04-15T23:54:49.881Z,9.10
2023-04-15T23:57:16.997Z,9.00
2023-04-15T23:59:44.036Z,9.00
